sensor_id;sensor_type;location;lat;lon;timestamp;pressure;altitude;pressure_sealevel;temperature;humidity
12360;BME280;6244;51.460;7.090;2024-02-04T00:00:01;101296.97;;;9.04;100.00
12360;BME280;6244;51.460;7.090;2024-02-04T00:04:59;101298.09;;;8.97;100.00
12360;BME280;6244;51.460;7.090;2024-02-04T00:09:56;101291.16;;;8.96;100.00
12360;BME280;6244;51.460;7.090;2024-02-04T00:14:52;101294.75;;;8.92;100.00
12360;BME280;6244;51.460;7.090;2024-02-04T00:19:49;101268.72;;;8.89;100.00
12360;BME280;6244;51.460;7.090;2024-02-04T00:24:46;101263.53;;;8.87;100.00
12360;BME280;6244;51.460;7.090;2024-02-04T00:29:43;101261.88;;;8.85;100.00
12360;BME280;6244;51.460;7.090;2024-02-04T00:34:40;101260.13;;;8.85;100.00
12360;BME280;6244;51.460;7.090;2024-02-04T00:39:36;101268.06;;;8.82;100.00
12360;BME280;6244;51.460;7.090;2024-02-04T00:44:34;101266.41;;;8.79;100.00
12360;BME280;6244;51.460;7.090;2024-02-04T00:49:30;101275.06;;;8.81;100.00
12360;BME280;6244;51.460;7.090;2024-02-04T00:54:27;101264.69;;;8.78;100.00
12360;BME280;6244;51.460;7.090;2024-02-04T00:59:23;101266.50;;;8.76;100.00
12360;BME280;6244;51.460;7.090;2024-02-04T01:04:21;101261.44;;;8.72;100.00
12360;BME280;6244;51.460;7.090;2024-02-04T01:09:18;101265.75;;;8.73;100.00
12360;BME280;6244;51.460;7.090;2024-02-04T01:14:15;101264.97;;;8.71;100.00
12360;BME280;6244;51.460;7.090;2024-02-04T01:19:12;101265.03;;;8.69;100.00
12360;BME280;6244;51.460;7.090;2024-02-04T01:24:10;101267.75;;;8.65;100.00
12360;BME280;6244;51.460;7.090;2024-02-04T01:29:06;101266.00;;;8.65;100.00
12360;BME280;6244;51.460;7.090;2024-02-04T01:34:03;101264.31;;;8.64;100.00
12360;BME280;6244;51.460;7.090;2024-02-04T01:39:00;101272.19;;;8.63;100.00
12360;BME280;6244;51.460;7.090;2024-02-04T01:43:57;101277.38;;;8.64;100.00
12360;BME280;6244;51.460;7.090;2024-02-04T01:48:54;101262.47;;;8.66;100.00
12360;BME280;6244;51.460;7.090;2024-02-04T01:53:51;101265.09;;;8.66;100.00
12360;BME280;6244;51.460;7.090;2024-02-04T01:58:47;101247.63;;;8.68;100.00
12360;BME280;6244;51.460;7.090;2024-02-04T02:03:46;101239.53;;;8.74;100.00
12360;BME280;6244;51.460;7.090;2024-02-04T02:08:44;101247.28;;;8.77;100.00
12360;BME280;6244;51.460;7.090;2024-02-04T02:13:43;101248.13;;;8.78;100.00
12360;BME280;6244;51.460;7.090;2024-02-04T02:18:46;101248.06;;;8.79;100.00
12360;BME280;6244;51.460;7.090;2024-02-04T02:23:52;101259.38;;;8.81;100.00
12360;BME280;6244;51.460;7.090;2024-02-04T02:28:52;101257.59;;;8.82;100.00
12360;BME280;6244;51.460;7.090;2024-02-04T02:33:48;101260.06;;;8.87;100.00
12360;BME280;6244;51.460;7.090;2024-02-04T02:38:52;101253.91;;;8.88;100.00
12360;BME280;6244;51.460;7.090;2024-02-04T02:43:54;101260.91;;;8.87;100.00
12360;BME280;6244;51.460;7.090;2024-02-04T02:48:51;101248.69;;;8.88;100.00
12360;BME280;6244;51.460;7.090;2024-02-04T02:53:48;101263.41;;;8.90;100.00
12360;BME280;6244;51.460;7.090;2024-02-04T02:58:45;101259.88;;;8.91;100.00
12360;BME280;6244;51.460;7.090;2024-02-04T03:03:42;101247.66;;;8.92;100.00
12360;BME280;6244;51.460;7.090;2024-02-04T03:08:39;101243.38;;;8.89;100.00
12360;BME280;6244;51.460;7.090;2024-02-04T03:13:38;101248.69;;;8.88;100.00
12360;BME280;6244;51.460;7.090;2024-02-04T03:18:34;101246.75;;;8.93;100.00
12360;BME280;6244;51.460;7.090;2024-02-04T03:23:32;101249.22;;;8.97;100.00
12360;BME280;6244;51.460;7.090;2024-02-04T03:28:29;101244.78;;;8.99;100.00
12360;BME280;6244;51.460;7.090;2024-02-04T03:33:25;101230.00;;;8.98;100.00
12360;BME280;6244;51.460;7.090;2024-02-04T03:38:22;101229.19;;;8.96;100.00
12360;BME280;6244;51.460;7.090;2024-02-04T03:43:20;101211.59;;;9.00;100.00
12360;BME280;6244;51.460;7.090;2024-02-04T03:48:16;101214.22;;;9.00;100.00
12360;BME280;6244;51.460;7.090;2024-02-04T03:53:13;101218.59;;;8.99;100.00
12360;BME280;6244;51.460;7.090;2024-02-04T03:58:09;101228.34;;;8.96;100.00
12360;BME280;6244;51.460;7.090;2024-02-04T04:03:07;101227.38;;;8.98;100.00
12360;BME280;6244;51.460;7.090;2024-02-04T04:08:04;101226.41;;;9.01;100.00
12360;BME280;6244;51.460;7.090;2024-02-04T04:13:00;101220.19;;;9.03;100.00
12360;BME280;6244;51.460;7.090;2024-02-04T04:17:57;101209.66;;;9.05;100.00
12360;BME280;6244;51.460;7.090;2024-02-04T04:22:55;101207.97;;;9.04;100.00
12360;BME280;6244;51.460;7.090;2024-02-04T04:27:51;101230.59;;;9.06;100.00
12360;BME280;6244;51.460;7.090;2024-02-04T04:32:48;101226.25;;;9.05;100.00
12360;BME280;6244;51.460;7.090;2024-02-04T04:37:44;101240.28;;;9.03;100.00
12360;BME280;6244;51.460;7.090;2024-02-04T04:42:42;101231.56;;;9.02;100.00
12360;BME280;6244;51.460;7.090;2024-02-04T04:47:39;101242.00;;;9.04;100.00
12360;BME280;6244;51.460;7.090;2024-02-04T04:52:36;101235.91;;;9.03;100.00
12360;BME280;6244;51.460;7.090;2024-02-04T04:57:32;101229.03;;;9.01;100.00
12360;BME280;6244;51.460;7.090;2024-02-04T05:02:30;101220.25;;;9.02;100.00
12360;BME280;6244;51.460;7.090;2024-02-04T05:07:27;101217.63;;;9.02;100.00
12360;BME280;6244;51.460;7.090;2024-02-04T05:12:23;101211.50;;;9.03;100.00
12360;BME280;6244;51.460;7.090;2024-02-04T05:17:20;101217.53;;;9.05;100.00
12360;BME280;6244;51.460;7.090;2024-02-04T05:22:18;101228.06;;;9.03;100.00
12360;BME280;6244;51.460;7.090;2024-02-04T05:27:14;101236.03;;;9.00;100.00
12360;BME280;6244;51.460;7.090;2024-02-04T05:32:14;101229.75;;;9.04;100.00
12360;BME280;6244;51.460;7.090;2024-02-04T05:37:14;101213.19;;;9.04;100.00
12360;BME280;6244;51.460;7.090;2024-02-04T05:42:13;101225.50;;;9.02;100.00
12360;BME280;6244;51.460;7.090;2024-02-04T05:47:10;101198.47;;;9.01;100.00
12360;BME280;6244;51.460;7.090;2024-02-04T05:52:08;101190.59;;;9.01;100.00
12360;BME280;6244;51.460;7.090;2024-02-04T05:57:04;101194.94;;;9.02;100.00
12360;BME280;6244;51.460;7.090;2024-02-04T06:02:02;101202.84;;;9.01;100.00
12360;BME280;6244;51.460;7.090;2024-02-04T06:06:59;101189.75;;;9.01;100.00
12360;BME280;6244;51.460;7.090;2024-02-04T06:11:55;101174.91;;;9.01;100.00
12360;BME280;6244;51.460;7.090;2024-02-04T06:16:52;101181.00;;;9.02;100.00
12360;BME280;6244;51.460;7.090;2024-02-04T06:21:50;101182.69;;;9.03;100.00
12360;BME280;6244;51.460;7.090;2024-02-04T06:26:46;101174.78;;;9.04;100.00
12360;BME280;6244;51.460;7.090;2024-02-04T06:31:44;101158.34;;;9.01;100.00
12360;BME280;6244;51.460;7.090;2024-02-04T06:36:42;101155.06;;;8.96;100.00
12360;BME280;6244;51.460;7.090;2024-02-04T06:41:40;101169.97;;;8.94;100.00
12360;BME280;6244;51.460;7.090;2024-02-04T06:46:37;101163.97;;;8.90;100.00
12360;BME280;6244;51.460;7.090;2024-02-04T06:51:33;101144.78;;;8.90;100.00
12360;BME280;6244;51.460;7.090;2024-02-04T06:56:30;101149.16;;;8.89;100.00
12360;BME280;6244;51.460;7.090;2024-02-04T07:01:28;101137.84;;;8.89;100.00
12360;BME280;6244;51.460;7.090;2024-02-04T07:06:24;101141.31;;;8.89;100.00
12360;BME280;6244;51.460;7.090;2024-02-04T07:11:21;101149.28;;;8.86;100.00
12360;BME280;6244;51.460;7.090;2024-02-04T07:16:17;101136.22;;;8.86;100.00
12360;BME280;6244;51.460;7.090;2024-02-04T07:21:15;101152.69;;;8.88;100.00
12360;BME280;6244;51.460;7.090;2024-02-04T07:26:12;101165.59;;;8.93;100.00
12360;BME280;6244;51.460;7.090;2024-02-04T07:31:08;101183.91;;;8.94;100.00
12360;BME280;6244;51.460;7.090;2024-02-04T07:36:06;101171.66;;;8.95;100.00
12360;BME280;6244;51.460;7.090;2024-02-04T07:41:04;101168.19;;;8.94;100.00
12360;BME280;6244;51.460;7.090;2024-02-04T07:46:02;101158.34;;;9.01;100.00
12360;BME280;6244;51.460;7.090;2024-02-04T07:50:58;101156.63;;;9.00;100.00
12360;BME280;6244;51.460;7.090;2024-02-04T07:55:58;101163.53;;;9.02;100.00
12360;BME280;6244;51.460;7.090;2024-02-04T08:00:56;101171.22;;;9.07;100.00
12360;BME280;6244;51.460;7.090;2024-02-04T08:05:52;101162.47;;;9.08;100.00
12360;BME280;6244;51.460;7.090;2024-02-04T08:10:49;101156.53;;;9.03;100.00
12360;BME280;6244;51.460;7.090;2024-02-04T08:15:46;101178.50;;;8.99;100.00
12360;BME280;6244;51.460;7.090;2024-02-04T08:20:44;101169.84;;;8.97;100.00
12360;BME280;6244;51.460;7.090;2024-02-04T08:25:40;101167.28;;;8.95;100.00
12360;BME280;6244;51.460;7.090;2024-02-04T08:30:37;101162.13;;;8.92;100.00
12360;BME280;6244;51.460;7.090;2024-02-04T08:35:34;101166.75;;;8.86;100.00
12360;BME280;6244;51.460;7.090;2024-02-04T08:40:31;101163.44;;;8.80;100.00
12360;BME280;6244;51.460;7.090;2024-02-04T08:45:28;101171.06;;;8.87;100.00
12360;BME280;6244;51.460;7.090;2024-02-04T08:50:25;101162.31;;;8.88;100.00
12360;BME280;6244;51.460;7.090;2024-02-04T08:55:21;101151.66;;;8.94;100.00
12360;BME280;6244;51.460;7.090;2024-02-04T09:00:20;101158.59;;;8.95;100.00
12360;BME280;6244;51.460;7.090;2024-02-04T09:05:16;101149.75;;;8.97;100.00
12360;BME280;6244;51.460;7.090;2024-02-04T09:10:15;101152.25;;;9.00;100.00
12360;BME280;6244;51.460;7.090;2024-02-04T09:15:12;101161.81;;;9.01;100.00
12360;BME280;6244;51.460;7.090;2024-02-04T09:20:11;101150.63;;;8.98;100.00
12360;BME280;6244;51.460;7.090;2024-02-04T09:25:08;101136.59;;;8.99;100.00
12360;BME280;6244;51.460;7.090;2024-02-04T09:30:05;101149.81;;;8.96;100.00
12360;BME280;6244;51.460;7.090;2024-02-04T09:35:02;101153.44;;;8.92;100.00
12360;BME280;6244;51.460;7.090;2024-02-04T09:40:00;101153.41;;;8.93;100.00
12360;BME280;6244;51.460;7.090;2024-02-04T09:44:57;101144.59;;;8.96;100.00
12360;BME280;6244;51.460;7.090;2024-02-04T09:49:54;101153.84;;;9.04;100.00
12360;BME280;6244;51.460;7.090;2024-02-04T09:54:55;101151.88;;;9.11;100.00
12360;BME280;6244;51.460;7.090;2024-02-04T09:59:54;101158.88;;;9.10;100.00
12360;BME280;6244;51.460;7.090;2024-02-04T10:04:51;101156.19;;;9.12;100.00
12360;BME280;6244;51.460;7.090;2024-02-04T10:09:48;101161.25;;;9.17;100.00
12360;BME280;6244;51.460;7.090;2024-02-04T10:14:44;101162.63;;;9.27;100.00
12360;BME280;6244;51.460;7.090;2024-02-04T10:19:42;101165.22;;;9.27;100.00
12360;BME280;6244;51.460;7.090;2024-02-04T10:24:39;101172.56;;;9.17;100.00
12360;BME280;6244;51.460;7.090;2024-02-04T10:29:36;101147.09;;;9.22;100.00
12360;BME280;6244;51.460;7.090;2024-02-04T10:34:36;101163.19;;;9.35;100.00
12360;BME280;6244;51.460;7.090;2024-02-04T10:39:34;101163.06;;;9.38;100.00
12360;BME280;6244;51.460;7.090;2024-02-04T10:44:35;101161.19;;;9.41;100.00
12360;BME280;6244;51.460;7.090;2024-02-04T10:49:33;101161.88;;;9.47;100.00
12360;BME280;6244;51.460;7.090;2024-02-04T10:54:32;101157.22;;;9.53;100.00
12360;BME280;6244;51.460;7.090;2024-02-04T10:59:31;101161.22;;;9.63;100.00
12360;BME280;6244;51.460;7.090;2024-02-04T11:04:29;101161.34;;;9.82;100.00
12360;BME280;6244;51.460;7.090;2024-02-04T11:09:26;101160.38;;;9.85;100.00
12360;BME280;6244;51.460;7.090;2024-02-04T11:14:24;101160.56;;;9.80;100.00
12360;BME280;6244;51.460;7.090;2024-02-04T11:19:34;101163.09;;;9.60;100.00
12360;BME280;6244;51.460;7.090;2024-02-04T11:24:47;101153.75;;;9.53;100.00
12360;BME280;6244;51.460;7.090;2024-02-04T11:29:49;101139.09;;;9.49;100.00
12360;BME280;6244;51.460;7.090;2024-02-04T11:34:47;101130.97;;;9.33;100.00
12360;BME280;6244;51.460;7.090;2024-02-04T11:39:48;101121.50;;;9.29;100.00
12360;BME280;6244;51.460;7.090;2024-02-04T11:44:45;101112.72;;;9.30;100.00
12360;BME280;6244;51.460;7.090;2024-02-04T11:49:41;101109.25;;;9.29;100.00
12360;BME280;6244;51.460;7.090;2024-02-04T11:54:39;101102.38;;;9.27;100.00
12360;BME280;6244;51.460;7.090;2024-02-04T11:59:36;101092.75;;;9.27;100.00
12360;BME280;6244;51.460;7.090;2024-02-04T12:04:33;101083.94;;;9.30;100.00
12360;BME280;6244;51.460;7.090;2024-02-04T12:09:30;101081.22;;;9.33;100.00
12360;BME280;6244;51.460;7.090;2024-02-04T12:14:29;101071.66;;;9.32;100.00
12360;BME280;6244;51.460;7.090;2024-02-04T12:19:26;101066.47;;;9.30;100.00
12360;BME280;6244;51.460;7.090;2024-02-04T12:24:23;101065.56;;;9.31;100.00
12360;BME280;6244;51.460;7.090;2024-02-04T12:29:20;101067.94;;;9.37;100.00
12360;BME280;6244;51.460;7.090;2024-02-04T12:34:18;101050.31;;;9.41;100.00
12360;BME280;6244;51.460;7.090;2024-02-04T12:39:15;101043.28;;;9.43;100.00
12360;BME280;6244;51.460;7.090;2024-02-04T12:44:17;101053.63;;;9.46;100.00
12360;BME280;6244;51.460;7.090;2024-02-04T12:49:19;101042.78;;;9.55;100.00
12360;BME280;6244;51.460;7.090;2024-02-04T12:54:17;101034.91;;;9.55;100.00
12360;BME280;6244;51.460;7.090;2024-02-04T12:59:25;101039.25;;;9.56;100.00
12360;BME280;6244;51.460;7.090;2024-02-04T13:04:23;101026.38;;;9.50;100.00
12360;BME280;6244;51.460;7.090;2024-02-04T13:09:20;101018.66;;;9.47;100.00
12360;BME280;6244;51.460;7.090;2024-02-04T13:14:18;101005.56;;;9.47;100.00
12360;BME280;6244;51.460;7.090;2024-02-04T13:19:17;101022.25;;;9.45;100.00
12360;BME280;6244;51.460;7.090;2024-02-04T13:24:15;101019.63;;;9.45;100.00
12360;BME280;6244;51.460;7.090;2024-02-04T13:29:12;101022.25;;;9.45;100.00
12360;BME280;6244;51.460;7.090;2024-02-04T13:34:09;101024.75;;;9.48;100.00
12360;BME280;6244;51.460;7.090;2024-02-04T13:39:06;101042.22;;;9.47;100.00
12360;BME280;6244;51.460;7.090;2024-02-04T13:44:05;101046.75;;;9.44;100.00
12360;BME280;6244;51.460;7.090;2024-02-04T13:49:02;101051.13;;;9.43;100.00
12360;BME280;6244;51.460;7.090;2024-02-04T13:53:58;101043.28;;;9.43;100.00
12360;BME280;6244;51.460;7.090;2024-02-04T13:58:55;101043.16;;;9.46;100.00
12360;BME280;6244;51.460;7.090;2024-02-04T14:03:53;101044.91;;;9.46;100.00
12360;BME280;6244;51.460;7.090;2024-02-04T14:08:49;101048.50;;;9.43;100.00
12360;BME280;6244;51.460;7.090;2024-02-04T14:13:46;101020.66;;;9.40;100.00
12360;BME280;6244;51.460;7.090;2024-02-04T14:18:42;101009.38;;;9.38;100.00
12360;BME280;6244;51.460;7.090;2024-02-04T14:23:42;101020.66;;;9.40;100.00
12360;BME280;6244;51.460;7.090;2024-02-04T14:28:39;101022.47;;;9.38;100.00
12360;BME280;6244;51.460;7.090;2024-02-04T14:33:36;101021.69;;;9.36;100.00
12360;BME280;6244;51.460;7.090;2024-02-04T14:38:33;101031.31;;;9.36;100.00
12360;BME280;6244;51.460;7.090;2024-02-04T14:43:35;101037.47;;;9.35;100.00
12360;BME280;6244;51.460;7.090;2024-02-04T14:48:31;101050.50;;;9.36;100.00
12360;BME280;6244;51.460;7.090;2024-02-04T14:53:28;101053.13;;;9.36;100.00
12360;BME280;6244;51.460;7.090;2024-02-04T14:58:24;101030.28;;;9.40;100.00
12360;BME280;6244;51.460;7.090;2024-02-04T15:03:22;101023.09;;;9.45;100.00
12360;BME280;6244;51.460;7.090;2024-02-04T15:08:19;101028.28;;;9.47;100.00
12360;BME280;6244;51.460;7.090;2024-02-04T15:13:16;101044.00;;;9.47;100.00
12360;BME280;6244;51.460;7.090;2024-02-04T15:18:13;101048.38;;;9.46;100.00
12360;BME280;6244;51.460;7.090;2024-02-04T15:23:12;101029.00;;;9.50;100.00
12360;BME280;6244;51.460;7.090;2024-02-04T15:28:11;101031.69;;;9.49;100.00
12360;BME280;6244;51.460;7.090;2024-02-04T15:33:09;101000.38;;;9.46;100.00
12360;BME280;6244;51.460;7.090;2024-02-04T15:38:05;101004.84;;;9.44;100.00
12360;BME280;6244;51.460;7.090;2024-02-04T15:43:03;100994.38;;;9.44;100.00
12360;BME280;6244;51.460;7.090;2024-02-04T15:48:03;100991.97;;;9.37;100.00
12360;BME280;6244;51.460;7.090;2024-02-04T15:53:00;100984.06;;;9.39;100.00
12360;BME280;6244;51.460;7.090;2024-02-04T15:57:59;100991.06;;;9.38;100.00
12360;BME280;6244;51.460;7.090;2024-02-04T16:02:57;100985.22;;;9.32;100.00
12360;BME280;6244;51.460;7.090;2024-02-04T16:07:54;100968.47;;;9.36;100.00
12360;BME280;6244;51.460;7.090;2024-02-04T16:12:54;100974.63;;;9.35;100.00
12360;BME280;6244;51.460;7.090;2024-02-04T16:17:51;100977.31;;;9.33;100.00
12360;BME280;6244;51.460;7.090;2024-02-04T16:22:49;100967.81;;;9.31;100.00
12360;BME280;6244;51.460;7.090;2024-02-04T16:27:46;100958.19;;;9.31;100.00
12360;BME280;6244;51.460;7.090;2024-02-04T16:32:43;100960.81;;;9.31;100.00
12360;BME280;6244;51.460;7.090;2024-02-04T16:37:39;100961.72;;;9.30;100.00
12360;BME280;6244;51.460;7.090;2024-02-04T16:42:37;100958.28;;;9.28;100.00
12360;BME280;6244;51.460;7.090;2024-02-04T16:47:34;100947.09;;;9.25;100.00
12360;BME280;6244;51.460;7.090;2024-02-04T16:52:31;100963.53;;;9.28;100.00
12360;BME280;6244;51.460;7.090;2024-02-04T16:57:27;100956.66;;;9.26;100.00
12360;BME280;6244;51.460;7.090;2024-02-04T17:02:26;100954.91;;;9.26;100.00
12360;BME280;6244;51.460;7.090;2024-02-04T17:07:23;100959.22;;;9.27;100.00
12360;BME280;6244;51.460;7.090;2024-02-04T17:12:21;100931.31;;;9.26;100.00
12360;BME280;6244;51.460;7.090;2024-02-04T17:17:19;100941.81;;;9.26;100.00
12360;BME280;6244;51.460;7.090;2024-02-04T17:22:19;100928.84;;;9.23;100.00
12360;BME280;6244;51.460;7.090;2024-02-04T17:27:18;100938.47;;;9.23;100.00
12360;BME280;6244;51.460;7.090;2024-02-04T17:32:15;100935.06;;;9.21;100.00
12360;BME280;6244;51.460;7.090;2024-02-04T17:37:16;100927.00;;;9.25;100.00
12360;BME280;6244;51.460;7.090;2024-02-04T17:42:14;100922.56;;;9.27;100.00
12360;BME280;6244;51.460;7.090;2024-02-04T17:47:11;100921.63;;;9.28;100.00
12360;BME280;6244;51.460;7.090;2024-02-04T17:52:07;100930.03;;;9.36;100.00
12360;BME280;6244;51.460;7.090;2024-02-04T17:57:04;100937.28;;;9.30;100.00
12360;BME280;6244;51.460;7.090;2024-02-04T18:02:02;100947.59;;;9.34;100.00
12360;BME280;6244;51.460;7.090;2024-02-04T18:06:59;100942.41;;;9.33;100.00
12360;BME280;6244;51.460;7.090;2024-02-04T18:11:56;100939.66;;;9.36;100.00
12360;BME280;6244;51.460;7.090;2024-02-04T18:16:52;100939.66;;;9.36;100.00
12360;BME280;6244;51.460;7.090;2024-02-04T18:21:50;100945.13;;;9.30;100.00
12360;BME280;6244;51.460;7.090;2024-02-04T18:26:47;100945.13;;;9.30;100.00
12360;BME280;6244;51.460;7.090;2024-02-04T18:31:43;100943.44;;;9.29;100.00
12360;BME280;6244;51.460;7.090;2024-02-04T18:36:42;100944.47;;;9.25;100.00
12360;BME280;6244;51.460;7.090;2024-02-04T18:41:40;100953.06;;;9.28;100.00
12360;BME280;6244;51.460;7.090;2024-02-04T18:46:40;100950.44;;;9.28;100.00
12360;BME280;6244;51.460;7.090;2024-02-04T18:51:40;100939.25;;;9.25;100.00
12360;BME280;6244;51.460;7.090;2024-02-04T18:56:43;100946.44;;;9.20;100.00
12360;BME280;6244;51.460;7.090;2024-02-04T19:01:40;100934.31;;;9.17;100.00
12360;BME280;6244;51.460;7.090;2024-02-04T19:06:38;100937.97;;;9.13;100.00
12360;BME280;6244;51.460;7.090;2024-02-04T19:11:39;100922.41;;;9.10;100.00
12360;BME280;6244;51.460;7.090;2024-02-04T19:16:37;100922.53;;;9.07;100.00
12360;BME280;6244;51.460;7.090;2024-02-04T19:21:41;100931.25;;;9.07;100.00
12360;BME280;6244;51.460;7.090;2024-02-04T19:26:38;100932.31;;;9.02;100.00
12360;BME280;6244;51.460;7.090;2024-02-04T19:31:36;100922.78;;;9.01;100.00
12360;BME280;6244;51.460;7.090;2024-02-04T19:36:33;100938.53;;;8.99;100.00
12360;BME280;6244;51.460;7.090;2024-02-04T19:41:30;100926.44;;;8.97;100.00
12360;BME280;6244;51.460;7.090;2024-02-04T19:46:27;100923.03;;;8.95;100.00
12360;BME280;6244;51.460;7.090;2024-02-04T19:51:25;100935.19;;;8.96;100.00
12360;BME280;6244;51.460;7.090;2024-02-04T19:56:21;100934.28;;;8.97;100.00
12360;BME280;6244;51.460;7.090;2024-02-04T20:01:18;100922.91;;;8.98;100.00
12360;BME280;6244;51.460;7.090;2024-02-04T20:06:15;100936.91;;;8.97;100.00
12360;BME280;6244;51.460;7.090;2024-02-04T20:11:13;100923.75;;;8.98;100.00
12360;BME280;6244;51.460;7.090;2024-02-04T20:16:09;100924.66;;;8.97;100.00
12360;BME280;6244;51.460;7.090;2024-02-04T20:21:06;100926.50;;;8.95;100.00
12360;BME280;6244;51.460;7.090;2024-02-04T20:26:03;100917.72;;;8.96;100.00
12360;BME280;6244;51.460;7.090;2024-02-04T20:31:01;100936.78;;;9.00;100.00
12360;BME280;6244;51.460;7.090;2024-02-04T20:35:58;100935.00;;;9.00;100.00
12360;BME280;6244;51.460;7.090;2024-02-04T20:40:55;100939.31;;;9.01;100.00
12360;BME280;6244;51.460;7.090;2024-02-04T20:45:51;100930.50;;;9.04;100.00
12360;BME280;6244;51.460;7.090;2024-02-04T20:50:49;100926.00;;;9.07;100.00
12360;BME280;6244;51.460;7.090;2024-02-04T20:55:46;100932.03;;;9.09;100.00
12360;BME280;6244;51.460;7.090;2024-02-04T21:00:42;100913.50;;;9.14;100.00
12360;BME280;6244;51.460;7.090;2024-02-04T21:05:39;100923.06;;;9.15;100.00
12360;BME280;6244;51.460;7.090;2024-02-04T21:10:38;100916.84;;;9.18;100.00
12360;BME280;6244;51.460;7.090;2024-02-04T21:15:34;100922.03;;;9.19;100.00
12360;BME280;6244;51.460;7.090;2024-02-04T21:20:32;100922.69;;;9.24;100.00
12360;BME280;6244;51.460;7.090;2024-02-04T21:25:28;100911.97;;;9.30;100.00
12360;BME280;6244;51.460;7.090;2024-02-04T21:30:27;100905.00;;;9.29;100.00
12360;BME280;6244;51.460;7.090;2024-02-04T21:35:25;100911.84;;;9.33;100.00
12360;BME280;6244;51.460;7.090;2024-02-04T21:40:22;100914.41;;;9.35;100.00
12360;BME280;6244;51.460;7.090;2024-02-04T21:45:20;100904.63;;;9.38;100.00
12360;BME280;6244;51.460;7.090;2024-02-04T21:50:19;100914.13;;;9.41;100.00
12360;BME280;6244;51.460;7.090;2024-02-04T21:55:16;100905.41;;;9.40;100.00
12360;BME280;6244;51.460;7.090;2024-02-04T22:00:13;100894.75;;;9.45;100.00
12360;BME280;6244;51.460;7.090;2024-02-04T22:05:10;100893.97;;;9.43;100.00
12360;BME280;6244;51.460;7.090;2024-02-04T22:10:08;100909.50;;;9.48;100.00
12360;BME280;6244;51.460;7.090;2024-02-04T22:15:06;100918.97;;;9.50;100.00
12360;BME280;6244;51.460;7.090;2024-02-04T22:20:05;100920.59;;;9.53;100.00
12360;BME280;6244;51.460;7.090;2024-02-04T22:25:02;100923.22;;;9.53;100.00
12360;BME280;6244;51.460;7.090;2024-02-04T22:30:00;100919.59;;;9.57;100.00
12360;BME280;6244;51.460;7.090;2024-02-04T22:34:58;100924.75;;;9.58;100.00
12360;BME280;6244;51.460;7.090;2024-02-04T22:39:54;100912.66;;;9.56;100.00
12360;BME280;6244;51.460;7.090;2024-02-04T22:44:51;100908.13;;;9.59;100.00
12360;BME280;6244;51.460;7.090;2024-02-04T22:49:48;100915.13;;;9.59;100.00
12360;BME280;6244;51.460;7.090;2024-02-04T22:54:45;100919.13;;;9.67;100.00
12360;BME280;6244;51.460;7.090;2024-02-04T22:59:41;100906.06;;;9.66;100.00
12360;BME280;6244;51.460;7.090;2024-02-04T23:04:39;100902.50;;;9.68;100.00
12360;BME280;6244;51.460;7.090;2024-02-04T23:09:37;100925.09;;;9.71;100.00
12360;BME280;6244;51.460;7.090;2024-02-04T23:14:34;100914.59;;;9.71;100.00
12360;BME280;6244;51.460;7.090;2024-02-04T23:19:30;100924.22;;;9.70;100.00
12360;BME280;6244;51.460;7.090;2024-02-04T23:24:27;100930.13;;;9.76;100.00
12360;BME280;6244;51.460;7.090;2024-02-04T23:29:25;100945.69;;;9.79;100.00
12360;BME280;6244;51.460;7.090;2024-02-04T23:34:21;100921.94;;;9.83;100.00
12360;BME280;6244;51.460;7.090;2024-02-04T23:39:18;100935.88;;;9.84;100.00
12360;BME280;6244;51.460;7.090;2024-02-04T23:44:14;100936.72;;;9.84;100.00
12360;BME280;6244;51.460;7.090;2024-02-04T23:49:12;100928.88;;;9.84;100.00
12360;BME280;6244;51.460;7.090;2024-02-04T23:54:09;100922.78;;;9.84;100.00
12360;BME280;6244;51.460;7.090;2024-02-04T23:59:05;100932.41;;;9.83;100.00
